sensor_id;sensor_type;location;lat;lon;timestamp;P1;durP1;ratioP1;P2;durP2;ratioP2
70707;SDS011;58277;47.316;18.908;2023-10-31T00:00:04;15.68;;;8.68;;
70707;SDS011;58277;47.316;18.908;2023-10-31T00:02:31;16.88;;;8.70;;
70707;SDS011;58277;47.316;18.908;2023-10-31T00:04:54;17.40;;;9.02;;
70707;SDS011;58277;47.316;18.908;2023-10-31T00:07:17;19.10;;;8.53;;
70707;SDS011;58277;47.316;18.908;2023-10-31T00:09:40;17.67;;;8.73;;
70707;SDS011;58277;47.316;18.908;2023-10-31T00:12:02;16.83;;;8.93;;
70707;SDS011;58277;47.316;18.908;2023-10-31T00:14:25;18.02;;;8.85;;
70707;SDS011;58277;47.316;18.908;2023-10-31T00:16:52;19.10;;;8.88;;
70707;SDS011;58277;47.316;18.908;2023-10-31T00:19:15;17.20;;;9.00;;
70707;SDS011;58277;47.316;18.908;2023-10-31T00:21:38;16.75;;;8.63;;
70707;SDS011;58277;47.316;18.908;2023-10-31T00:24:01;19.48;;;9.05;;
70707;SDS011;58277;47.316;18.908;2023-10-31T00:26:25;17.00;;;8.80;;
70707;SDS011;58277;47.316;18.908;2023-10-31T00:28:48;15.75;;;8.60;;
70707;SDS011;58277;47.316;18.908;2023-10-31T00:31:11;19.07;;;8.60;;
70707;SDS011;58277;47.316;18.908;2023-10-31T00:33:34;18.67;;;9.45;;
70707;SDS011;58277;47.316;18.908;2023-10-31T00:35:58;18.15;;;8.70;;
70707;SDS011;58277;47.316;18.908;2023-10-31T00:38:20;18.45;;;8.77;;
70707;SDS011;58277;47.316;18.908;2023-10-31T00:40:43;17.73;;;9.02;;
70707;SDS011;58277;47.316;18.908;2023-10-31T00:43:05;18.83;;;9.43;;
70707;SDS011;58277;47.316;18.908;2023-10-31T00:45:28;17.60;;;9.27;;
70707;SDS011;58277;47.316;18.908;2023-10-31T00:47:52;18.77;;;9.27;;
70707;SDS011;58277;47.316;18.908;2023-10-31T00:50:15;16.92;;;8.70;;
70707;SDS011;58277;47.316;18.908;2023-10-31T00:52:37;19.13;;;9.30;;
70707;SDS011;58277;47.316;18.908;2023-10-31T00:55:00;16.67;;;9.30;;
70707;SDS011;58277;47.316;18.908;2023-10-31T00:57:23;18.20;;;9.38;;
70707;SDS011;58277;47.316;18.908;2023-10-31T00:59:46;17.02;;;9.40;;
70707;SDS011;58277;47.316;18.908;2023-10-31T01:02:08;17.08;;;9.45;;
70707;SDS011;58277;47.316;18.908;2023-10-31T01:04:32;18.67;;;9.18;;
70707;SDS011;58277;47.316;18.908;2023-10-31T01:06:54;19.27;;;9.57;;
70707;SDS011;58277;47.316;18.908;2023-10-31T01:09:17;21.27;;;9.57;;
70707;SDS011;58277;47.316;18.908;2023-10-31T01:11:40;18.35;;;9.65;;
70707;SDS011;58277;47.316;18.908;2023-10-31T01:14:03;18.55;;;9.63;;
70707;SDS011;58277;47.316;18.908;2023-10-31T01:16:25;18.08;;;10.15;;
70707;SDS011;58277;47.316;18.908;2023-10-31T01:18:48;21.73;;;10.13;;
70707;SDS011;58277;47.316;18.908;2023-10-31T01:21:11;18.90;;;10.00;;
70707;SDS011;58277;47.316;18.908;2023-10-31T01:23:33;18.67;;;9.82;;
70707;SDS011;58277;47.316;18.908;2023-10-31T01:25:56;19.13;;;9.60;;
70707;SDS011;58277;47.316;18.908;2023-10-31T01:28:19;17.88;;;10.02;;
70707;SDS011;58277;47.316;18.908;2023-10-31T01:30:42;17.90;;;10.00;;
70707;SDS011;58277;47.316;18.908;2023-10-31T01:33:04;19.23;;;9.68;;
70707;SDS011;58277;47.316;18.908;2023-10-31T01:35:27;19.55;;;10.23;;
70707;SDS011;58277;47.316;18.908;2023-10-31T01:37:50;19.85;;;9.73;;
70707;SDS011;58277;47.316;18.908;2023-10-31T01:40:13;19.58;;;10.07;;
70707;SDS011;58277;47.316;18.908;2023-10-31T01:42:35;20.37;;;10.13;;
70707;SDS011;58277;47.316;18.908;2023-10-31T01:44:58;18.70;;;9.55;;
70707;SDS011;58277;47.316;18.908;2023-10-31T01:47:21;18.08;;;9.93;;
70707;SDS011;58277;47.316;18.908;2023-10-31T01:50:07;18.40;;;9.98;;
70707;SDS011;58277;47.316;18.908;2023-10-31T01:52:32;20.27;;;10.32;;
70707;SDS011;58277;47.316;18.908;2023-10-31T01:54:55;19.83;;;9.83;;
70707;SDS011;58277;47.316;18.908;2023-10-31T01:57:21;19.02;;;10.38;;
70707;SDS011;58277;47.316;18.908;2023-10-31T01:59:44;18.70;;;10.13;;
70707;SDS011;58277;47.316;18.908;2023-10-31T02:02:06;21.63;;;10.30;;
70707;SDS011;58277;47.316;18.908;2023-10-31T02:04:30;21.17;;;10.45;;
70707;SDS011;58277;47.316;18.908;2023-10-31T02:06:53;17.88;;;9.63;;
70707;SDS011;58277;47.316;18.908;2023-10-31T02:09:16;17.35;;;9.95;;
70707;SDS011;58277;47.316;18.908;2023-10-31T02:11:38;21.10;;;9.63;;
70707;SDS011;58277;47.316;18.908;2023-10-31T02:14:01;19.60;;;10.20;;
70707;SDS011;58277;47.316;18.908;2023-10-31T02:16:24;17.48;;;10.02;;
70707;SDS011;58277;47.316;18.908;2023-10-31T02:18:47;20.80;;;10.03;;
70707;SDS011;58277;47.316;18.908;2023-10-31T02:21:10;20.70;;;9.88;;
70707;SDS011;58277;47.316;18.908;2023-10-31T02:23:33;18.83;;;9.93;;
70707;SDS011;58277;47.316;18.908;2023-10-31T02:25:55;17.92;;;9.25;;
70707;SDS011;58277;47.316;18.908;2023-10-31T02:28:19;18.42;;;9.88;;
70707;SDS011;58277;47.316;18.908;2023-10-31T02:30:42;18.85;;;9.95;;
70707;SDS011;58277;47.316;18.908;2023-10-31T02:33:04;18.42;;;9.55;;
70707;SDS011;58277;47.316;18.908;2023-10-31T02:35:27;15.93;;;9.18;;
70707;SDS011;58277;47.316;18.908;2023-10-31T02:37:53;20.70;;;10.00;;
70707;SDS011;58277;47.316;18.908;2023-10-31T02:40:15;17.13;;;9.82;;
70707;SDS011;58277;47.316;18.908;2023-10-31T02:42:38;18.33;;;9.83;;
70707;SDS011;58277;47.316;18.908;2023-10-31T02:45:01;18.48;;;9.52;;
70707;SDS011;58277;47.316;18.908;2023-10-31T02:47:24;18.40;;;9.48;;
70707;SDS011;58277;47.316;18.908;2023-10-31T02:49:47;18.58;;;9.32;;
70707;SDS011;58277;47.316;18.908;2023-10-31T02:52:10;17.73;;;9.48;;
70707;SDS011;58277;47.316;18.908;2023-10-31T02:54:33;19.17;;;9.18;;
70707;SDS011;58277;47.316;18.908;2023-10-31T02:56:56;18.45;;;9.13;;
70707;SDS011;58277;47.316;18.908;2023-10-31T02:59:19;17.40;;;9.48;;
70707;SDS011;58277;47.316;18.908;2023-10-31T03:01:41;17.50;;;8.70;;
70707;SDS011;58277;47.316;18.908;2023-10-31T03:04:04;16.55;;;9.25;;
70707;SDS011;58277;47.316;18.908;2023-10-31T03:06:27;15.93;;;9.03;;
70707;SDS011;58277;47.316;18.908;2023-10-31T03:08:50;15.95;;;9.13;;
70707;SDS011;58277;47.316;18.908;2023-10-31T03:11:22;14.90;;;8.73;;
70707;SDS011;58277;47.316;18.908;2023-10-31T03:13:49;17.20;;;8.43;;
70707;SDS011;58277;47.316;18.908;2023-10-31T03:16:12;17.80;;;8.98;;
70707;SDS011;58277;47.316;18.908;2023-10-31T03:18:35;16.20;;;9.10;;
70707;SDS011;58277;47.316;18.908;2023-10-31T03:20:57;15.40;;;9.10;;
70707;SDS011;58277;47.316;18.908;2023-10-31T03:23:22;16.30;;;9.20;;
70707;SDS011;58277;47.316;18.908;2023-10-31T03:25:44;17.35;;;8.98;;
70707;SDS011;58277;47.316;18.908;2023-10-31T03:28:17;18.25;;;9.38;;
70707;SDS011;58277;47.316;18.908;2023-10-31T03:30:41;18.57;;;9.13;;
70707;SDS011;58277;47.316;18.908;2023-10-31T03:33:04;17.90;;;9.50;;
70707;SDS011;58277;47.316;18.908;2023-10-31T03:35:27;16.05;;;9.30;;
70707;SDS011;58277;47.316;18.908;2023-10-31T03:37:49;19.98;;;10.00;;
70707;SDS011;58277;47.316;18.908;2023-10-31T03:40:12;18.30;;;9.45;;
70707;SDS011;58277;47.316;18.908;2023-10-31T03:42:35;20.63;;;9.33;;
70707;SDS011;58277;47.316;18.908;2023-10-31T03:44:57;15.85;;;9.15;;
70707;SDS011;58277;47.316;18.908;2023-10-31T03:47:20;17.35;;;9.05;;
70707;SDS011;58277;47.316;18.908;2023-10-31T03:49:42;19.25;;;8.90;;
70707;SDS011;58277;47.316;18.908;2023-10-31T03:52:05;16.40;;;9.18;;
70707;SDS011;58277;47.316;18.908;2023-10-31T03:54:28;18.00;;;8.75;;
70707;SDS011;58277;47.316;18.908;2023-10-31T03:56:51;16.50;;;9.35;;
70707;SDS011;58277;47.316;18.908;2023-10-31T03:59:13;18.05;;;9.65;;
70707;SDS011;58277;47.316;18.908;2023-10-31T04:01:36;18.88;;;9.75;;
70707;SDS011;58277;47.316;18.908;2023-10-31T04:03:59;19.70;;;9.10;;
70707;SDS011;58277;47.316;18.908;2023-10-31T04:06:22;16.63;;;8.57;;
70707;SDS011;58277;47.316;18.908;2023-10-31T04:08:45;18.08;;;9.18;;
70707;SDS011;58277;47.316;18.908;2023-10-31T04:11:07;19.88;;;9.20;;
70707;SDS011;58277;47.316;18.908;2023-10-31T04:13:30;19.13;;;9.32;;
70707;SDS011;58277;47.316;18.908;2023-10-31T04:15:53;18.33;;;9.38;;
70707;SDS011;58277;47.316;18.908;2023-10-31T04:18:15;15.50;;;8.57;;
70707;SDS011;58277;47.316;18.908;2023-10-31T04:20:39;17.88;;;9.27;;
70707;SDS011;58277;47.316;18.908;2023-10-31T04:23:02;16.73;;;9.55;;
70707;SDS011;58277;47.316;18.908;2023-10-31T04:25:25;17.10;;;9.30;;
70707;SDS011;58277;47.316;18.908;2023-10-31T04:27:49;14.82;;;9.00;;
70707;SDS011;58277;47.316;18.908;2023-10-31T04:30:11;17.10;;;10.10;;
70707;SDS011;58277;47.316;18.908;2023-10-31T04:32:36;19.35;;;9.73;;
70707;SDS011;58277;47.316;18.908;2023-10-31T04:34:59;16.88;;;9.70;;
70707;SDS011;58277;47.316;18.908;2023-10-31T04:37:22;18.15;;;9.35;;
70707;SDS011;58277;47.316;18.908;2023-10-31T04:39:45;16.65;;;9.65;;
70707;SDS011;58277;47.316;18.908;2023-10-31T04:42:07;19.07;;;9.67;;
70707;SDS011;58277;47.316;18.908;2023-10-31T04:44:30;17.20;;;9.65;;
70707;SDS011;58277;47.316;18.908;2023-10-31T04:46:53;18.98;;;9.65;;
70707;SDS011;58277;47.316;18.908;2023-10-31T04:49:16;18.95;;;9.27;;
70707;SDS011;58277;47.316;18.908;2023-10-31T04:51:39;18.42;;;9.77;;
70707;SDS011;58277;47.316;18.908;2023-10-31T04:54:01;16.98;;;9.95;;
70707;SDS011;58277;47.316;18.908;2023-10-31T04:56:24;17.17;;;9.25;;
70707;SDS011;58277;47.316;18.908;2023-10-31T04:58:47;16.75;;;8.80;;
70707;SDS011;58277;47.316;18.908;2023-10-31T05:01:13;15.98;;;8.98;;
70707;SDS011;58277;47.316;18.908;2023-10-31T05:03:36;16.45;;;9.10;;
70707;SDS011;58277;47.316;18.908;2023-10-31T05:05:59;17.77;;;8.80;;
70707;SDS011;58277;47.316;18.908;2023-10-31T05:08:21;17.38;;;8.82;;
70707;SDS011;58277;47.316;18.908;2023-10-31T05:10:44;15.55;;;8.57;;
70707;SDS011;58277;47.316;18.908;2023-10-31T05:13:10;17.50;;;9.40;;
70707;SDS011;58277;47.316;18.908;2023-10-31T05:15:32;14.63;;;8.13;;
70707;SDS011;58277;47.316;18.908;2023-10-31T05:17:55;16.93;;;8.00;;
70707;SDS011;58277;47.316;18.908;2023-10-31T05:20:18;13.43;;;8.13;;
70707;SDS011;58277;47.316;18.908;2023-10-31T05:22:41;12.93;;;7.85;;
70707;SDS011;58277;47.316;18.908;2023-10-31T05:25:04;14.30;;;8.07;;
70707;SDS011;58277;47.316;18.908;2023-10-31T05:27:27;13.32;;;7.70;;
70707;SDS011;58277;47.316;18.908;2023-10-31T05:29:53;12.40;;;7.73;;
70707;SDS011;58277;47.316;18.908;2023-10-31T05:32:16;12.70;;;7.18;;
70707;SDS011;58277;47.316;18.908;2023-10-31T05:34:39;15.02;;;7.35;;
70707;SDS011;58277;47.316;18.908;2023-10-31T05:37:01;11.75;;;7.15;;
70707;SDS011;58277;47.316;18.908;2023-10-31T05:39:24;11.90;;;6.55;;
70707;SDS011;58277;47.316;18.908;2023-10-31T05:41:47;12.83;;;6.73;;
70707;SDS011;58277;47.316;18.908;2023-10-31T05:44:09;13.80;;;6.47;;
70707;SDS011;58277;47.316;18.908;2023-10-31T05:46:37;11.13;;;6.70;;
70707;SDS011;58277;47.316;18.908;2023-10-31T05:49:02;11.30;;;6.13;;
70707;SDS011;58277;47.316;18.908;2023-10-31T05:51:25;12.38;;;5.75;;
70707;SDS011;58277;47.316;18.908;2023-10-31T05:53:48;11.40;;;5.83;;
70707;SDS011;58277;47.316;18.908;2023-10-31T05:56:11;8.50;;;5.70;;
70707;SDS011;58277;47.316;18.908;2023-10-31T05:58:37;12.48;;;5.60;;
70707;SDS011;58277;47.316;18.908;2023-10-31T06:01:00;10.40;;;5.38;;
70707;SDS011;58277;47.316;18.908;2023-10-31T06:03:23;8.90;;;5.35;;
70707;SDS011;58277;47.316;18.908;2023-10-31T06:05:46;9.40;;;4.60;;
70707;SDS011;58277;47.316;18.908;2023-10-31T06:08:09;11.82;;;5.10;;
70707;SDS011;58277;47.316;18.908;2023-10-31T06:10:31;8.65;;;4.30;;
70707;SDS011;58277;47.316;18.908;2023-10-31T06:12:54;8.90;;;4.18;;
70707;SDS011;58277;47.316;18.908;2023-10-31T06:15:16;8.07;;;4.22;;
70707;SDS011;58277;47.316;18.908;2023-10-31T06:17:39;9.32;;;3.75;;
70707;SDS011;58277;47.316;18.908;2023-10-31T06:20:02;7.60;;;3.83;;
70707;SDS011;58277;47.316;18.908;2023-10-31T06:22:25;7.30;;;3.75;;
70707;SDS011;58277;47.316;18.908;2023-10-31T06:24:48;7.63;;;3.83;;
70707;SDS011;58277;47.316;18.908;2023-10-31T06:27:11;6.70;;;3.60;;
70707;SDS011;58277;47.316;18.908;2023-10-31T06:29:33;6.17;;;3.33;;
70707;SDS011;58277;47.316;18.908;2023-10-31T06:31:59;8.18;;;3.60;;
70707;SDS011;58277;47.316;18.908;2023-10-31T06:34:22;7.80;;;3.53;;
70707;SDS011;58277;47.316;18.908;2023-10-31T06:36:44;5.95;;;3.30;;
70707;SDS011;58277;47.316;18.908;2023-10-31T06:39:07;4.95;;;3.03;;
70707;SDS011;58277;47.316;18.908;2023-10-31T06:41:31;5.70;;;3.03;;
70707;SDS011;58277;47.316;18.908;2023-10-31T06:43:54;5.13;;;2.75;;
70707;SDS011;58277;47.316;18.908;2023-10-31T06:46:16;6.78;;;3.13;;
70707;SDS011;58277;47.316;18.908;2023-10-31T06:48:39;7.85;;;3.00;;
70707;SDS011;58277;47.316;18.908;2023-10-31T06:51:02;6.43;;;2.90;;
70707;SDS011;58277;47.316;18.908;2023-10-31T06:53:25;5.80;;;2.90;;
70707;SDS011;58277;47.316;18.908;2023-10-31T06:55:47;6.43;;;3.05;;
70707;SDS011;58277;47.316;18.908;2023-10-31T06:58:12;4.85;;;2.60;;
70707;SDS011;58277;47.316;18.908;2023-10-31T07:00:35;7.57;;;2.80;;
70707;SDS011;58277;47.316;18.908;2023-10-31T07:02:57;6.65;;;3.03;;
70707;SDS011;58277;47.316;18.908;2023-10-31T07:05:21;5.07;;;2.73;;
70707;SDS011;58277;47.316;18.908;2023-10-31T07:07:44;6.68;;;2.90;;
70707;SDS011;58277;47.316;18.908;2023-10-31T07:10:06;6.80;;;3.13;;
70707;SDS011;58277;47.316;18.908;2023-10-31T07:12:29;7.80;;;3.05;;
70707;SDS011;58277;47.316;18.908;2023-10-31T07:14:52;4.97;;;2.70;;
70707;SDS011;58277;47.316;18.908;2023-10-31T07:17:15;5.75;;;2.83;;
70707;SDS011;58277;47.316;18.908;2023-10-31T07:19:38;5.90;;;2.83;;
70707;SDS011;58277;47.316;18.908;2023-10-31T07:22:00;7.40;;;2.90;;
70707;SDS011;58277;47.316;18.908;2023-10-31T07:24:23;6.38;;;2.88;;
70707;SDS011;58277;47.316;18.908;2023-10-31T07:26:48;6.32;;;2.88;;
70707;SDS011;58277;47.316;18.908;2023-10-31T07:29:11;6.65;;;2.70;;
70707;SDS011;58277;47.316;18.908;2023-10-31T07:31:34;6.15;;;2.90;;
70707;SDS011;58277;47.316;18.908;2023-10-31T07:34:01;8.02;;;3.05;;
70707;SDS011;58277;47.316;18.908;2023-10-31T07:36:24;7.00;;;3.45;;
70707;SDS011;58277;47.316;18.908;2023-10-31T07:38:50;5.93;;;2.80;;
70707;SDS011;58277;47.316;18.908;2023-10-31T07:41:12;8.52;;;2.83;;
70707;SDS011;58277;47.316;18.908;2023-10-31T07:43:35;4.93;;;2.78;;
70707;SDS011;58277;47.316;18.908;2023-10-31T07:46:00;5.55;;;2.95;;
70707;SDS011;58277;47.316;18.908;2023-10-31T07:48:23;7.85;;;2.75;;
70707;SDS011;58277;47.316;18.908;2023-10-31T07:50:46;7.07;;;2.83;;
70707;SDS011;58277;47.316;18.908;2023-10-31T07:53:08;5.28;;;2.67;;
70707;SDS011;58277;47.316;18.908;2023-10-31T07:55:31;5.18;;;2.75;;
70707;SDS011;58277;47.316;18.908;2023-10-31T07:57:53;5.63;;;2.60;;
70707;SDS011;58277;47.316;18.908;2023-10-31T08:00:16;6.78;;;2.95;;
70707;SDS011;58277;47.316;18.908;2023-10-31T08:02:39;5.90;;;2.50;;
70707;SDS011;58277;47.316;18.908;2023-10-31T08:05:02;6.63;;;2.60;;
70707;SDS011;58277;47.316;18.908;2023-10-31T08:07:25;6.07;;;2.60;;
70707;SDS011;58277;47.316;18.908;2023-10-31T08:09:52;5.63;;;2.70;;
70707;SDS011;58277;47.316;18.908;2023-10-31T08:12:15;4.82;;;2.70;;
70707;SDS011;58277;47.316;18.908;2023-10-31T08:14:39;7.43;;;2.53;;
70707;SDS011;58277;47.316;18.908;2023-10-31T08:17:02;5.20;;;2.63;;
70707;SDS011;58277;47.316;18.908;2023-10-31T08:19:25;6.30;;;2.83;;
70707;SDS011;58277;47.316;18.908;2023-10-31T08:21:47;6.13;;;2.50;;
70707;SDS011;58277;47.316;18.908;2023-10-31T08:24:10;5.78;;;3.00;;
70707;SDS011;58277;47.316;18.908;2023-10-31T08:26:33;5.63;;;2.92;;
70707;SDS011;58277;47.316;18.908;2023-10-31T08:28:56;7.10;;;2.70;;
70707;SDS011;58277;47.316;18.908;2023-10-31T08:31:19;6.18;;;2.65;;
70707;SDS011;58277;47.316;18.908;2023-10-31T08:33:42;6.07;;;2.67;;
70707;SDS011;58277;47.316;18.908;2023-10-31T08:36:05;6.43;;;2.72;;
70707;SDS011;58277;47.316;18.908;2023-10-31T08:38:29;6.03;;;2.55;;
70707;SDS011;58277;47.316;18.908;2023-10-31T08:40:54;4.97;;;2.47;;
70707;SDS011;58277;47.316;18.908;2023-10-31T08:43:17;5.00;;;2.90;;
70707;SDS011;58277;47.316;18.908;2023-10-31T08:45:39;5.68;;;3.00;;
70707;SDS011;58277;47.316;18.908;2023-10-31T08:48:02;7.40;;;3.10;;
70707;SDS011;58277;47.316;18.908;2023-10-31T08:50:25;4.03;;;2.58;;
70707;SDS011;58277;47.316;18.908;2023-10-31T08:52:48;4.80;;;2.50;;
70707;SDS011;58277;47.316;18.908;2023-10-31T08:55:11;5.35;;;2.70;;
70707;SDS011;58277;47.316;18.908;2023-10-31T08:57:34;5.75;;;2.88;;
70707;SDS011;58277;47.316;18.908;2023-10-31T08:59:57;6.95;;;2.95;;
70707;SDS011;58277;47.316;18.908;2023-10-31T09:02:19;5.00;;;2.50;;
70707;SDS011;58277;47.316;18.908;2023-10-31T09:04:42;5.80;;;2.70;;
70707;SDS011;58277;47.316;18.908;2023-10-31T09:07:04;6.10;;;2.47;;
70707;SDS011;58277;47.316;18.908;2023-10-31T09:09:27;4.22;;;2.55;;
70707;SDS011;58277;47.316;18.908;2023-10-31T09:14:55;5.97;;;2.50;;
70707;SDS011;58277;47.316;18.908;2023-10-31T09:17:18;4.93;;;2.20;;
70707;SDS011;58277;47.316;18.908;2023-10-31T09:19:41;6.20;;;2.35;;
70707;SDS011;58277;47.316;18.908;2023-10-31T09:22:03;6.68;;;2.08;;
70707;SDS011;58277;47.316;18.908;2023-10-31T09:24:26;6.18;;;2.70;;
70707;SDS011;58277;47.316;18.908;2023-10-31T09:26:49;10.52;;;2.40;;
70707;SDS011;58277;47.316;18.908;2023-10-31T09:29:11;7.05;;;3.70;;
70707;SDS011;58277;47.316;18.908;2023-10-31T09:31:49;6.10;;;2.50;;
70707;SDS011;58277;47.316;18.908;2023-10-31T09:34:12;5.18;;;2.20;;
70707;SDS011;58277;47.316;18.908;2023-10-31T09:36:35;6.88;;;2.40;;
70707;SDS011;58277;47.316;18.908;2023-10-31T09:38:58;5.22;;;2.38;;
70707;SDS011;58277;47.316;18.908;2023-10-31T09:41:21;5.88;;;2.20;;
70707;SDS011;58277;47.316;18.908;2023-10-31T09:43:44;6.65;;;2.50;;
70707;SDS011;58277;47.316;18.908;2023-10-31T09:46:06;7.00;;;2.63;;
70707;SDS011;58277;47.316;18.908;2023-10-31T09:48:29;5.65;;;2.53;;
70707;SDS011;58277;47.316;18.908;2023-10-31T09:50:53;7.07;;;2.40;;
70707;SDS011;58277;47.316;18.908;2023-10-31T09:53:16;5.00;;;2.40;;
70707;SDS011;58277;47.316;18.908;2023-10-31T09:55:39;5.40;;;2.10;;
70707;SDS011;58277;47.316;18.908;2023-10-31T09:58:01;8.35;;;2.30;;
70707;SDS011;58277;47.316;18.908;2023-10-31T10:00:25;7.85;;;2.25;;
70707;SDS011;58277;47.316;18.908;2023-10-31T10:02:48;4.90;;;2.45;;
70707;SDS011;58277;47.316;18.908;2023-10-31T10:05:12;7.15;;;2.17;;
70707;SDS011;58277;47.316;18.908;2023-10-31T10:07:40;7.40;;;2.50;;
70707;SDS011;58277;47.316;18.908;2023-10-31T10:10:04;5.07;;;2.05;;
70707;SDS011;58277;47.316;18.908;2023-10-31T10:12:26;5.88;;;2.20;;
70707;SDS011;58277;47.316;18.908;2023-10-31T10:14:49;7.57;;;2.20;;
70707;SDS011;58277;47.316;18.908;2023-10-31T10:17:16;6.50;;;2.30;;
70707;SDS011;58277;47.316;18.908;2023-10-31T10:19:40;5.38;;;2.35;;
70707;SDS011;58277;47.316;18.908;2023-10-31T10:22:03;3.70;;;2.20;;
70707;SDS011;58277;47.316;18.908;2023-10-31T10:24:26;6.65;;;2.40;;
70707;SDS011;58277;47.316;18.908;2023-10-31T10:26:49;4.80;;;2.20;;
70707;SDS011;58277;47.316;18.908;2023-10-31T10:29:13;5.25;;;2.10;;
70707;SDS011;58277;47.316;18.908;2023-10-31T10:31:36;4.93;;;2.25;;
70707;SDS011;58277;47.316;18.908;2023-10-31T10:33:59;4.47;;;2.10;;
70707;SDS011;58277;47.316;18.908;2023-10-31T10:36:24;3.53;;;2.15;;
70707;SDS011;58277;47.316;18.908;2023-10-31T10:38:48;5.97;;;2.30;;
70707;SDS011;58277;47.316;18.908;2023-10-31T10:41:16;5.05;;;2.10;;
70707;SDS011;58277;47.316;18.908;2023-10-31T10:43:41;5.03;;;2.20;;
70707;SDS011;58277;47.316;18.908;2023-10-31T10:46:05;7.72;;;2.10;;
70707;SDS011;58277;47.316;18.908;2023-10-31T10:48:31;7.38;;;1.90;;
70707;SDS011;58277;47.316;18.908;2023-10-31T10:51:05;5.28;;;1.95;;
70707;SDS011;58277;47.316;18.908;2023-10-31T10:53:35;5.78;;;1.77;;
70707;SDS011;58277;47.316;18.908;2023-10-31T10:56:08;3.50;;;1.80;;
70707;SDS011;58277;47.316;18.908;2023-10-31T10:58:51;6.68;;;2.10;;
70707;SDS011;58277;47.316;18.908;2023-10-31T11:01:18;4.63;;;2.10;;
70707;SDS011;58277;47.316;18.908;2023-10-31T11:03:42;5.07;;;2.03;;
70707;SDS011;58277;47.316;18.908;2023-10-31T11:06:05;4.47;;;1.77;;
70707;SDS011;58277;47.316;18.908;2023-10-31T11:08:28;5.18;;;1.80;;
70707;SDS011;58277;47.316;18.908;2023-10-31T11:10:52;8.80;;;1.90;;
70707;SDS011;58277;47.316;18.908;2023-10-31T11:13:16;4.55;;;1.75;;
70707;SDS011;58277;47.316;18.908;2023-10-31T11:15:39;6.50;;;1.83;;
70707;SDS011;58277;47.316;18.908;2023-10-31T11:18:03;4.32;;;1.90;;
70707;SDS011;58277;47.316;18.908;2023-10-31T11:20:26;4.25;;;1.80;;
70707;SDS011;58277;47.316;18.908;2023-10-31T11:22:55;3.90;;;1.98;;
70707;SDS011;58277;47.316;18.908;2023-10-31T11:25:23;4.20;;;2.30;;
70707;SDS011;58277;47.316;18.908;2023-10-31T11:27:54;7.00;;;2.00;;
70707;SDS011;58277;47.316;18.908;2023-10-31T11:30:29;4.65;;;1.80;;
70707;SDS011;58277;47.316;18.908;2023-10-31T11:32:53;4.95;;;1.67;;
70707;SDS011;58277;47.316;18.908;2023-10-31T11:35:16;4.90;;;2.00;;
70707;SDS011;58277;47.316;18.908;2023-10-31T11:37:40;6.05;;;2.20;;
70707;SDS011;58277;47.316;18.908;2023-10-31T11:40:16;4.43;;;2.13;;
70707;SDS011;58277;47.316;18.908;2023-10-31T11:42:41;9.60;;;2.15;;
70707;SDS011;58277;47.316;18.908;2023-10-31T11:45:04;6.25;;;2.35;;
70707;SDS011;58277;47.316;18.908;2023-10-31T11:47:47;5.80;;;2.30;;
70707;SDS011;58277;47.316;18.908;2023-10-31T11:50:11;4.45;;;2.03;;
70707;SDS011;58277;47.316;18.908;2023-10-31T11:52:34;5.38;;;1.95;;
70707;SDS011;58277;47.316;18.908;2023-10-31T11:54:56;6.30;;;2.08;;
70707;SDS011;58277;47.316;18.908;2023-10-31T11:57:26;9.90;;;2.40;;
70707;SDS011;58277;47.316;18.908;2023-10-31T11:59:50;6.22;;;2.40;;
70707;SDS011;58277;47.316;18.908;2023-10-31T12:02:16;8.98;;;2.67;;
70707;SDS011;58277;47.316;18.908;2023-10-31T12:04:39;4.85;;;2.60;;
70707;SDS011;58277;47.316;18.908;2023-10-31T12:07:01;6.05;;;2.35;;
70707;SDS011;58277;47.316;18.908;2023-10-31T12:09:24;4.30;;;2.10;;
70707;SDS011;58277;47.316;18.908;2023-10-31T12:11:47;7.45;;;2.50;;
70707;SDS011;58277;47.316;18.908;2023-10-31T12:14:10;7.03;;;2.70;;
70707;SDS011;58277;47.316;18.908;2023-10-31T12:16:33;7.63;;;2.95;;
70707;SDS011;58277;47.316;18.908;2023-10-31T12:18:58;10.68;;;3.30;;
70707;SDS011;58277;47.316;18.908;2023-10-31T12:24:18;13.35;;;3.58;;
70707;SDS011;58277;47.316;18.908;2023-10-31T12:26:41;14.75;;;4.50;;
70707;SDS011;58277;47.316;18.908;2023-10-31T12:29:12;14.95;;;4.85;;
70707;SDS011;58277;47.316;18.908;2023-10-31T12:31:49;16.08;;;4.20;;
70707;SDS011;58277;47.316;18.908;2023-10-31T12:34:15;13.00;;;4.35;;
70707;SDS011;58277;47.316;18.908;2023-10-31T12:36:39;11.27;;;3.90;;
70707;SDS011;58277;47.316;18.908;2023-10-31T12:39:04;9.38;;;3.70;;
70707;SDS011;58277;47.316;18.908;2023-10-31T12:41:28;9.88;;;3.88;;
70707;SDS011;58277;47.316;18.908;2023-10-31T12:43:51;7.43;;;3.67;;
70707;SDS011;58277;47.316;18.908;2023-10-31T12:46:24;7.70;;;3.80;;
70707;SDS011;58277;47.316;18.908;2023-10-31T12:48:49;9.60;;;3.95;;
70707;SDS011;58277;47.316;18.908;2023-10-31T12:51:12;11.07;;;4.18;;
70707;SDS011;58277;47.316;18.908;2023-10-31T12:53:35;10.75;;;4.07;;
70707;SDS011;58277;47.316;18.908;2023-10-31T12:55:58;9.73;;;4.03;;
70707;SDS011;58277;47.316;18.908;2023-10-31T12:58:20;9.77;;;4.03;;
70707;SDS011;58277;47.316;18.908;2023-10-31T13:00:43;8.77;;;4.10;;
70707;SDS011;58277;47.316;18.908;2023-10-31T13:03:08;18.27;;;6.45;;
70707;SDS011;58277;47.316;18.908;2023-10-31T13:05:32;14.88;;;6.43;;
70707;SDS011;58277;47.316;18.908;2023-10-31T13:07:56;12.68;;;5.90;;
70707;SDS011;58277;47.316;18.908;2023-10-31T13:10:19;12.15;;;5.50;;
70707;SDS011;58277;47.316;18.908;2023-10-31T13:12:48;13.93;;;6.38;;
70707;SDS011;58277;47.316;18.908;2023-10-31T13:15:12;9.93;;;4.95;;
70707;SDS011;58277;47.316;18.908;2023-10-31T13:17:36;7.15;;;4.35;;
70707;SDS011;58277;47.316;18.908;2023-10-31T13:20:00;8.73;;;4.43;;
70707;SDS011;58277;47.316;18.908;2023-10-31T13:22:24;7.35;;;4.38;;
70707;SDS011;58277;47.316;18.908;2023-10-31T13:24:47;8.90;;;3.80;;
70707;SDS011;58277;47.316;18.908;2023-10-31T13:27:11;5.57;;;3.25;;
70707;SDS011;58277;47.316;18.908;2023-10-31T13:29:38;6.70;;;3.67;;
70707;SDS011;58277;47.316;18.908;2023-10-31T13:32:01;6.63;;;3.80;;
70707;SDS011;58277;47.316;18.908;2023-10-31T13:34:24;5.70;;;3.47;;
70707;SDS011;58277;47.316;18.908;2023-10-31T13:36:47;4.20;;;2.90;;
70707;SDS011;58277;47.316;18.908;2023-10-31T13:39:14;4.70;;;2.30;;
70707;SDS011;58277;47.316;18.908;2023-10-31T13:41:37;4.47;;;2.00;;
70707;SDS011;58277;47.316;18.908;2023-10-31T13:44:00;3.83;;;1.83;;
70707;SDS011;58277;47.316;18.908;2023-10-31T13:46:25;3.35;;;1.70;;
70707;SDS011;58277;47.316;18.908;2023-10-31T13:48:48;2.38;;;1.27;;
70707;SDS011;58277;47.316;18.908;2023-10-31T13:51:10;1.67;;;0.98;;
70707;SDS011;58277;47.316;18.908;2023-10-31T13:53:33;2.25;;;0.90;;
70707;SDS011;58277;47.316;18.908;2023-10-31T13:55:56;1.92;;;0.90;;
70707;SDS011;58277;47.316;18.908;2023-10-31T13:58:18;1.30;;;0.88;;
70707;SDS011;58277;47.316;18.908;2023-10-31T14:00:43;3.20;;;1.23;;
70707;SDS011;58277;47.316;18.908;2023-10-31T14:03:07;4.22;;;1.60;;
70707;SDS011;58277;47.316;18.908;2023-10-31T14:05:30;2.38;;;1.05;;
70707;SDS011;58277;47.316;18.908;2023-10-31T14:07:53;3.90;;;1.40;;
70707;SDS011;58277;47.316;18.908;2023-10-31T14:10:16;4.65;;;1.40;;
70707;SDS011;58277;47.316;18.908;2023-10-31T14:12:42;4.45;;;1.77;;